createdAt,value
2018-04-22T00:00:20.786Z,69.90
2018-04-22T00:02:48.479Z,70.60
2018-04-22T00:05:16.042Z,70.80
2018-04-22T00:07:43.601Z,70.88
2018-04-22T00:10:11.265Z,71.24
2018-04-22T00:12:38.817Z,71.67
2018-04-22T00:15:06.381Z,71.86
2018-04-22T00:17:33.991Z,72.13
2018-04-22T00:20:01.605Z,72.21
2018-04-22T00:22:29.307Z,72.16
2018-04-22T00:24:56.864Z,71.09
2018-04-22T00:27:24.420Z,70.49
2018-04-22T00:29:51.968Z,69.89
2018-04-22T00:32:19.578Z,69.88
2018-04-22T00:34:47.128Z,70.67
2018-04-22T00:37:14.737Z,70.64
2018-04-22T00:39:42.468Z,70.41
2018-04-22T00:42:10.023Z,69.24
2018-04-22T00:44:37.804Z,69.11
2018-04-22T00:47:05.494Z,68.85
2018-04-22T00:49:33.063Z,70.12
2018-04-22T00:52:00.860Z,69.96
2018-04-22T00:54:28.679Z,70.70
2018-04-22T00:56:56.497Z,71.22
2018-04-22T00:59:24.215Z,71.62
2018-04-22T01:01:51.787Z,72.38
2018-04-22T01:04:19.333Z,72.72
2018-04-22T01:06:47.070Z,72.76
2018-04-22T01:09:14.890Z,72.97
2018-04-22T01:11:42.497Z,72.44
2018-04-22T01:14:10.057Z,71.77
2018-04-22T01:16:37.614Z,71.12
2018-04-22T01:19:05.332Z,71.37
2018-04-22T01:21:32.884Z,71.90
2018-04-22T01:24:00.443Z,71.95
2018-04-22T01:26:28.105Z,71.58
2018-04-22T01:28:55.719Z,71.02
2018-04-22T01:31:23.421Z,71.15
2018-04-22T01:33:51.135Z,71.40
2018-04-22T01:36:18.720Z,71.24
2018-04-22T01:38:46.266Z,70.90
2018-04-22T01:41:13.993Z,71.70
2018-04-22T01:43:41.551Z,71.77
2018-04-22T01:46:09.363Z,72.25
2018-04-22T01:48:36.942Z,72.65
2018-04-22T01:51:04.700Z,72.50
2018-04-22T01:53:32.418Z,72.08
2018-04-22T01:55:59.978Z,72.22
2018-04-22T01:58:27.526Z,72.52
2018-04-22T02:00:55.125Z,72.33
2018-04-22T02:03:22.743Z,71.50
2018-04-22T02:05:50.412Z,71.86
2018-04-22T02:08:17.964Z,72.40
2018-04-22T02:10:45.744Z,72.79
2018-04-22T02:13:13.315Z,73.11
2018-04-22T02:15:41.043Z,73.06
2018-04-22T02:18:08.756Z,73.44
2018-04-22T02:20:36.382Z,73.74
2018-04-22T02:23:05.235Z,73.76
2018-04-22T02:25:32.803Z,74.07
2018-04-22T02:28:00.401Z,74.34
2018-04-22T02:30:28.191Z,74.48
2018-04-22T02:32:55.750Z,74.96
2018-04-22T02:35:23.300Z,74.69
2018-04-22T02:37:50.952Z,74.17
2018-04-22T02:40:18.516Z,74.13
2018-04-22T02:42:46.168Z,74.11
2018-04-22T02:45:13.895Z,73.84
2018-04-22T02:47:41.460Z,73.80
2018-04-22T02:50:09.021Z,73.56
2018-04-22T02:52:36.579Z,73.81
2018-04-22T02:55:04.196Z,73.80
2018-04-22T02:57:31.752Z,73.96
2018-04-22T02:59:59.501Z,73.88
2018-04-22T03:02:27.223Z,74.16
2018-04-22T03:04:54.773Z,74.04
2018-04-22T03:07:22.558Z,73.98
2018-04-22T03:09:50.248Z,73.97
2018-04-22T03:12:17.860Z,73.76
2018-04-22T03:14:45.612Z,74.23
2018-04-22T03:17:13.328Z,74.29
2018-04-22T03:19:41.146Z,74.05
2018-04-22T03:22:08.710Z,74.09
2018-04-22T03:24:36.445Z,74.08
2018-04-22T03:27:04.166Z,74.08
2018-04-22T03:29:31.761Z,74.15
2018-04-22T03:31:59.307Z,74.44
2018-04-22T03:34:26.861Z,74.47
2018-04-22T03:36:54.772Z,74.90
2018-04-22T03:39:22.320Z,74.62
2018-04-22T03:41:50.022Z,74.42
2018-04-22T03:44:17.581Z,74.56
2018-04-22T03:46:45.174Z,74.55
2018-04-22T03:49:12.721Z,74.15
2018-04-22T03:51:40.277Z,73.88
2018-04-22T03:54:07.999Z,73.68
2018-04-22T03:56:35.637Z,73.48
2018-04-22T03:59:03.478Z,73.38
2018-04-22T04:01:31.207Z,73.24
2018-04-22T04:03:59.141Z,73.59
2018-04-22T04:06:26.697Z,73.78
2018-04-22T04:08:54.279Z,73.53
2018-04-22T04:11:21.841Z,73.91
2018-04-22T04:13:49.403Z,73.98
2018-04-22T04:16:17.215Z,73.68
2018-04-22T04:19:05.590Z,72.81
2018-04-22T04:21:44.962Z,71.33
2018-04-22T04:27:26.161Z,70.57
2018-04-22T04:29:53.881Z,70.06
2018-04-22T04:32:21.492Z,69.63
2018-04-22T04:34:49.053Z,69.25
2018-04-22T04:37:16.616Z,68.98
2018-04-22T04:39:44.200Z,69.01
2018-04-22T04:42:11.754Z,68.51
2018-04-22T04:44:39.448Z,68.59
2018-04-22T04:47:07.207Z,68.42
2018-04-22T04:49:34.784Z,68.49
2018-04-22T04:52:02.349Z,68.33
2018-04-22T04:54:30.164Z,68.37
2018-04-22T04:56:57.855Z,67.68
2018-04-22T04:59:25.452Z,67.35
2018-04-22T05:01:53.109Z,67.28
2018-04-22T05:04:20.668Z,66.17
2018-04-22T05:06:48.272Z,65.48
2018-04-22T05:09:16.072Z,64.47
2018-04-22T05:11:43.680Z,60.29
2018-04-22T05:14:12.270Z,54.56
2018-04-22T05:16:39.988Z,48.36
2018-04-22T05:19:07.556Z,44.72
2018-04-22T05:21:35.118Z,41.52
2018-04-22T05:24:02.882Z,39.01
2018-04-22T05:26:30.599Z,36.72
2018-04-22T05:28:58.419Z,35.14
2018-04-22T05:31:25.996Z,32.49
2018-04-22T05:33:53.633Z,31.07
2018-04-22T05:36:21.200Z,28.74
2018-04-22T05:38:48.989Z,27.37
2018-04-22T05:41:16.564Z,25.92
2018-04-22T05:43:44.116Z,25.37
2018-04-22T05:46:11.731Z,24.17
2018-04-22T05:48:39.284Z,23.41
2018-04-22T05:51:06.849Z,23.21
2018-04-22T05:53:34.413Z,23.07
2018-04-22T05:56:01.972Z,23.55
2018-04-22T05:58:29.531Z,23.50
2018-04-22T06:00:57.141Z,23.52
2018-04-22T06:03:24.833Z,23.03
2018-04-22T06:05:52.552Z,22.56
2018-04-22T06:08:20.108Z,22.14
2018-04-22T06:10:47.688Z,21.93
2018-04-22T06:13:15.240Z,22.19
2018-04-22T06:15:42.812Z,22.33
2018-04-22T06:18:10.375Z,21.97
2018-04-22T06:20:37.996Z,22.96
2018-04-22T06:23:05.538Z,23.26
2018-04-22T06:25:33.334Z,23.68
2018-04-22T06:28:00.938Z,23.45
2018-04-22T06:30:28.625Z,23.96
2018-04-22T06:32:56.384Z,23.83
2018-04-22T06:35:24.078Z,23.39
2018-04-22T06:37:51.874Z,23.02
2018-04-22T06:40:19.447Z,22.24
2018-04-22T06:42:47.257Z,22.16
2018-04-22T06:45:14.837Z,21.97
2018-04-22T06:47:42.568Z,21.37
2018-04-22T06:50:10.136Z,21.54
2018-04-22T06:52:37.692Z,21.65
2018-04-22T06:55:05.548Z,21.46
2018-04-22T06:57:33.111Z,21.46
2018-04-22T07:00:00.885Z,21.95
2018-04-22T07:02:28.483Z,21.79
2018-04-22T07:04:56.038Z,21.34
2018-04-22T07:07:23.837Z,21.15
2018-04-22T07:09:51.656Z,20.95
2018-04-22T07:12:19.279Z,20.36
2018-04-22T07:14:46.849Z,20.53
2018-04-22T07:17:15.146Z,20.91
2018-04-22T07:19:44.099Z,19.78
2018-04-22T07:22:11.912Z,20.74
2018-04-22T07:24:39.521Z,20.65
2018-04-22T07:27:07.250Z,20.63
2018-04-22T07:29:34.996Z,20.67
2018-04-22T07:32:02.564Z,20.67
2018-04-22T07:34:30.121Z,20.61
2018-04-22T07:36:57.711Z,20.03
2018-04-22T07:39:25.267Z,19.44
2018-04-22T07:41:52.851Z,20.21
2018-04-22T07:44:20.675Z,20.69
2018-04-22T07:46:48.286Z,21.28
2018-04-22T07:49:15.972Z,22.43
2018-04-22T07:51:43.687Z,22.54
2018-04-22T07:54:11.255Z,23.02
2018-04-22T07:56:38.825Z,21.46
2018-04-22T07:59:06.397Z,20.89
2018-04-22T08:01:33.962Z,21.25
2018-04-22T08:04:01.589Z,21.41
2018-04-22T08:06:29.144Z,23.29
2018-04-22T08:08:56.745Z,24.92
2018-04-22T08:11:24.449Z,24.24
2018-04-22T08:13:52.009Z,24.87
2018-04-22T08:16:19.717Z,26.63
2018-04-22T08:18:47.268Z,27.97
2018-04-22T08:21:15.044Z,28.01
2018-04-22T08:23:42.644Z,27.95
2018-04-22T08:26:10.382Z,28.86
2018-04-22T08:28:37.945Z,27.91
2018-04-22T08:31:05.488Z,27.91
2018-04-22T08:33:33.048Z,28.11
2018-04-22T08:36:00.597Z,27.74
2018-04-22T08:38:28.260Z,26.73
2018-04-22T08:40:55.824Z,27.31
2018-04-22T08:43:23.383Z,26.02
2018-04-22T08:45:51.000Z,25.31
2018-04-22T08:48:18.548Z,24.47
2018-04-22T08:50:46.132Z,26.27
2018-04-22T08:53:13.701Z,26.08
2018-04-22T08:55:41.316Z,25.50
2018-04-22T08:58:08.868Z,24.63
2018-04-22T09:00:36.448Z,23.20
2018-04-22T09:03:04.039Z,21.75
2018-04-22T09:05:31.604Z,22.35
2018-04-22T09:07:59.165Z,22.84
2018-04-22T09:10:26.859Z,24.70
2018-04-22T09:12:54.465Z,24.63
2018-04-22T09:15:23.042Z,24.46
2018-04-22T09:17:50.764Z,24.93
2018-04-22T09:20:18.352Z,25.20
2018-04-22T09:22:46.097Z,24.75
2018-04-22T09:25:13.912Z,25.86
2018-04-22T09:27:41.574Z,25.73
2018-04-22T09:30:09.179Z,25.71
2018-04-22T09:32:36.733Z,24.78
2018-04-22T09:35:04.286Z,23.86
2018-04-22T09:37:31.835Z,24.24
2018-04-22T09:39:59.793Z,25.44
2018-04-22T09:42:27.373Z,26.08
2018-04-22T09:44:55.017Z,23.35
2018-04-22T09:47:22.980Z,21.56
2018-04-22T09:49:50.542Z,21.82
2018-04-22T09:52:18.297Z,22.45
2018-04-22T09:54:45.871Z,21.46
2018-04-22T09:57:13.607Z,20.52
2018-04-22T09:59:41.176Z,22.84
2018-04-22T10:02:14.396Z,22.87
2018-04-22T10:04:42.222Z,21.63
2018-04-22T10:07:09.943Z,22.35
2018-04-22T10:09:38.343Z,23.83
2018-04-22T10:12:05.900Z,21.80
2018-04-22T10:14:33.448Z,21.85
2018-04-22T10:17:00.989Z,21.92
2018-04-22T10:19:28.541Z,21.89
2018-04-22T10:21:56.118Z,21.61
2018-04-22T10:24:23.684Z,20.89
2018-04-22T10:26:51.470Z,21.28
2018-04-22T10:29:19.028Z,21.27
2018-04-22T10:31:46.823Z,20.82
2018-04-22T10:34:14.392Z,22.13
2018-04-22T10:36:42.162Z,23.98
2018-04-22T10:39:09.738Z,21.44
2018-04-22T10:41:37.496Z,22.30
2018-04-22T10:44:05.314Z,22.28
2018-04-22T10:46:32.872Z,20.85
2018-04-22T10:49:00.652Z,21.20
2018-04-22T10:51:28.370Z,20.39
2018-04-22T10:53:55.924Z,21.14
2018-04-22T10:56:23.705Z,21.42
2018-04-22T10:58:51.266Z,20.85
2018-04-22T11:01:19.044Z,20.44
2018-04-22T11:03:46.859Z,20.87
2018-04-22T11:06:14.460Z,21.43
2018-04-22T11:08:42.017Z,22.17
2018-04-22T11:11:09.816Z,21.18
2018-04-22T11:13:37.395Z,21.81
2018-04-22T11:16:04.982Z,20.87
2018-04-22T11:18:32.768Z,21.05
2018-04-22T11:21:00.324Z,20.87
2018-04-22T11:23:27.880Z,21.21
2018-04-22T11:25:55.447Z,21.03
2018-04-22T11:28:22.989Z,20.53
2018-04-22T11:30:50.760Z,20.98
2018-04-22T11:33:18.324Z,20.93
2018-04-22T11:35:45.955Z,22.04
2018-04-22T11:38:13.536Z,21.35
2018-04-22T11:40:41.330Z,21.01
2018-04-22T11:43:09.048Z,22.29
2018-04-22T11:45:36.674Z,21.74
2018-04-22T11:48:04.336Z,21.54
2018-04-22T11:50:32.004Z,21.98
2018-04-22T11:52:59.596Z,21.84
2018-04-22T11:55:27.160Z,22.38
2018-04-22T11:57:54.731Z,22.19
2018-04-22T12:00:22.386Z,22.19
2018-04-22T12:02:49.978Z,22.49
2018-04-22T12:05:17.671Z,22.70
2018-04-22T12:07:45.429Z,22.75
2018-04-22T12:10:13.042Z,22.12
2018-04-22T12:12:40.864Z,21.90
2018-04-22T12:15:08.497Z,21.54
2018-04-22T12:17:36.069Z,22.59
2018-04-22T12:20:03.920Z,20.72
2018-04-22T12:22:31.489Z,20.41
2018-04-22T12:24:59.259Z,19.92
2018-04-22T12:27:26.884Z,19.97
2018-04-22T12:29:54.529Z,19.92
2018-04-22T12:32:22.201Z,20.61
2018-04-22T12:34:49.908Z,20.76
2018-04-22T12:37:17.643Z,20.74
2018-04-22T12:39:45.281Z,20.73
2018-04-22T12:42:13.016Z,21.87
2018-04-22T12:44:40.612Z,22.17
2018-04-22T12:47:08.203Z,22.01
2018-04-22T12:49:35.804Z,22.31
2018-04-22T12:52:04.038Z,22.26
2018-04-22T12:54:31.780Z,22.61
2018-04-22T12:56:59.613Z,22.23
2018-04-22T12:59:27.288Z,23.05
2018-04-22T13:01:55.140Z,22.04
2018-04-22T13:04:22.701Z,23.11
2018-04-22T13:06:50.317Z,22.95
2018-04-22T13:09:18.085Z,22.96
2018-04-22T13:11:45.636Z,22.75
2018-04-22T13:14:13.247Z,22.41
2018-04-22T13:16:40.848Z,22.52
2018-04-22T13:19:08.404Z,22.62
2018-04-22T13:21:35.976Z,22.75
2018-04-22T13:24:03.548Z,22.84
2018-04-22T13:26:31.202Z,23.88
2018-04-22T13:28:58.768Z,23.88
2018-04-22T13:31:26.337Z,24.94
2018-04-22T13:33:53.905Z,24.58
2018-04-22T13:36:21.654Z,24.18
2018-04-22T13:38:49.268Z,24.40
2018-04-22T13:41:16.885Z,24.19
2018-04-22T13:43:44.456Z,23.96
2018-04-22T13:46:12.046Z,25.24
2018-04-22T13:48:39.607Z,24.79
2018-04-22T13:51:07.232Z,24.06
2018-04-22T13:53:34.784Z,23.67
2018-04-22T13:56:02.344Z,23.39
2018-04-22T13:58:29.931Z,24.21
2018-04-22T14:00:57.664Z,24.35
2018-04-22T14:03:25.278Z,24.26
2018-04-22T14:05:53.096Z,23.78
2018-04-22T14:08:20.689Z,24.23
2018-04-22T14:10:48.288Z,24.28
2018-04-22T14:13:16.055Z,24.43
2018-04-22T14:15:48.972Z,24.87
2018-04-22T14:18:16.540Z,24.70
2018-04-22T14:20:44.096Z,24.15
2018-04-22T14:23:11.664Z,24.73
2018-04-22T14:25:39.224Z,24.90
2018-04-22T14:28:07.036Z,24.45
2018-04-22T14:30:34.674Z,24.70
2018-04-22T14:33:02.395Z,24.46
2018-04-22T14:35:30.008Z,24.28
2018-04-22T14:37:57.730Z,25.00
2018-04-22T14:40:26.474Z,24.91
2018-04-22T14:42:54.020Z,25.02
2018-04-22T14:45:33.276Z,25.55
2018-04-22T14:48:01.065Z,24.94
2018-04-22T14:50:28.680Z,25.21
2018-04-22T14:52:56.244Z,24.99
2018-04-22T14:55:23.796Z,25.39
2018-04-22T14:57:51.376Z,25.08
2018-04-22T15:00:18.918Z,25.21
2018-04-22T15:02:46.752Z,25.08
2018-04-22T15:05:14.385Z,25.43
2018-04-22T15:07:42.213Z,25.52
2018-04-22T15:10:09.776Z,25.19
2018-04-22T15:12:37.324Z,25.41
2018-04-22T15:15:04.889Z,25.87
2018-04-22T15:17:32.440Z,25.13
2018-04-22T15:20:00.044Z,25.47
2018-04-22T15:22:27.596Z,25.92
2018-04-22T15:24:55.149Z,25.98
2018-04-22T15:27:22.953Z,25.79
2018-04-22T15:29:50.512Z,26.36
2018-04-22T15:32:18.292Z,26.63
2018-04-22T15:34:45.841Z,26.45
2018-04-22T15:37:13.626Z,26.54
2018-04-22T15:39:41.346Z,26.16
2018-04-22T15:42:08.900Z,25.92
2018-04-22T15:44:36.471Z,26.89
2018-04-22T15:47:04.045Z,27.67
2018-04-22T15:49:31.778Z,26.98
2018-04-22T15:51:59.338Z,26.50
2018-04-22T15:54:27.033Z,26.21
2018-04-22T15:56:54.589Z,27.47
2018-04-22T15:59:22.149Z,28.46
2018-04-22T16:01:49.693Z,29.26
2018-04-22T16:04:17.425Z,29.78
2018-04-22T16:06:45.032Z,29.36
2018-04-22T16:09:12.589Z,29.98
2018-04-22T16:11:40.149Z,30.50
2018-04-22T16:14:07.897Z,30.98
2018-04-22T16:16:35.514Z,31.47
2018-04-22T16:19:03.093Z,32.13
2018-04-22T16:21:30.652Z,32.54
2018-04-22T16:23:58.468Z,32.78
2018-04-22T16:26:26.022Z,33.61
2018-04-22T16:28:53.803Z,33.89
2018-04-22T16:31:21.623Z,33.05
2018-04-22T16:33:49.309Z,33.63
2018-04-22T16:36:16.924Z,33.90
2018-04-22T16:38:44.507Z,34.36
2018-04-22T16:41:12.060Z,34.46
2018-04-22T16:43:39.624Z,34.68
2018-04-22T16:46:07.197Z,34.36
2018-04-22T16:48:34.809Z,34.42
2018-04-22T16:51:02.394Z,34.38
2018-04-22T16:53:30.184Z,34.55
2018-04-22T16:55:57.784Z,34.94
2018-04-22T16:58:25.479Z,35.29
2018-04-22T17:00:53.220Z,35.42
2018-04-22T17:03:20.774Z,35.71
2018-04-22T17:05:48.391Z,36.01
2018-04-22T17:08:15.980Z,36.57
2018-04-22T17:10:43.589Z,36.84
2018-04-22T17:13:11.165Z,37.41
2018-04-22T17:15:38.724Z,38.22
2018-04-22T17:18:06.319Z,38.56
2018-04-22T17:20:33.875Z,38.76
2018-04-22T17:23:01.537Z,38.96
2018-04-22T17:25:29.164Z,39.39
2018-04-22T17:27:56.753Z,39.84
2018-04-22T17:30:24.330Z,40.64
2018-04-22T17:32:51.966Z,40.25
2018-04-22T17:35:19.689Z,40.81
2018-04-22T17:37:47.400Z,41.05
2018-04-22T17:40:15.230Z,41.18
2018-04-22T17:42:42.788Z,41.29
2018-04-22T17:45:10.567Z,41.84
2018-04-22T17:47:38.169Z,41.87
2018-04-22T17:50:05.717Z,42.02
2018-04-22T17:52:33.293Z,42.10
2018-04-22T17:55:00.852Z,42.81
2018-04-22T17:57:28.469Z,42.60
2018-04-22T17:59:56.272Z,42.62
2018-04-22T18:02:23.933Z,43.20
2018-04-22T18:04:51.490Z,43.23
2018-04-22T18:07:19.203Z,43.46
2018-04-22T18:09:46.776Z,43.57
2018-04-22T18:12:14.405Z,43.94
2018-04-22T18:14:42.091Z,44.53
2018-04-22T18:17:09.865Z,44.80
2018-04-22T18:19:37.531Z,44.98
2018-04-22T18:22:05.073Z,44.87
2018-04-22T18:24:32.620Z,45.32
2018-04-22T18:27:00.367Z,45.77
2018-04-22T18:29:28.087Z,45.77
2018-04-22T18:31:55.716Z,46.67
2018-04-22T18:34:23.523Z,47.46
2018-04-22T18:36:51.090Z,47.87
2018-04-22T18:39:18.708Z,48.94
2018-04-22T18:41:46.310Z,50.56
2018-04-22T18:44:13.920Z,50.60
2018-04-22T18:46:41.715Z,50.72
2018-04-22T18:49:09.441Z,51.11
2018-04-22T18:51:37.004Z,51.52
2018-04-22T18:54:04.670Z,51.81
2018-04-22T18:56:32.250Z,52.28
2018-04-22T18:58:59.824Z,52.63
2018-04-22T19:01:27.401Z,52.98
2018-04-22T19:03:55.141Z,53.01
2018-04-22T19:06:23.062Z,53.19
2018-04-22T19:08:50.780Z,53.46
2018-04-22T19:11:18.694Z,53.54
2018-04-22T19:13:46.297Z,53.70
2018-04-22T19:16:13.979Z,53.81
2018-04-22T19:18:41.546Z,53.47
2018-04-22T19:21:09.103Z,53.55
2018-04-22T19:23:36.710Z,53.55
2018-04-22T19:26:04.284Z,54.22
2018-04-22T19:28:32.960Z,54.42
2018-04-22T19:31:00.547Z,54.47
2018-04-22T19:33:28.261Z,54.25
2018-04-22T19:35:55.828Z,54.34
2018-04-22T19:38:23.441Z,53.88
2018-04-22T19:40:51.048Z,53.93
2018-04-22T19:43:18.832Z,54.15
2018-04-22T19:45:46.551Z,54.06
2018-04-22T19:48:14.148Z,53.91
2018-04-22T19:50:41.705Z,53.99
2018-04-22T19:53:09.273Z,54.00
2018-04-22T19:55:36.826Z,53.89
2018-04-22T19:58:04.464Z,54.35
2018-04-22T20:00:32.056Z,54.59
2018-04-22T20:02:59.630Z,54.57
2018-04-22T20:05:27.204Z,56.62
2018-04-22T20:07:54.762Z,57.48
2018-04-22T20:10:22.372Z,57.80
2018-04-22T20:12:50.110Z,57.84
2018-04-22T20:15:17.734Z,58.34
2018-04-22T20:17:45.291Z,57.24
2018-04-22T20:20:12.840Z,57.22
2018-04-22T20:22:40.500Z,57.88
2018-04-22T20:25:08.236Z,57.93
2018-04-22T20:27:36.065Z,58.60
2018-04-22T20:30:03.876Z,59.20
2018-04-22T20:32:31.528Z,59.82
2018-04-22T20:34:59.312Z,60.42
2018-04-22T20:37:26.888Z,60.72
2018-04-22T20:39:54.444Z,61.07
2018-04-22T20:42:22.284Z,61.02
2018-04-22T20:44:50.086Z,61.21
2018-04-22T20:47:17.649Z,61.61
2018-04-22T20:49:45.212Z,61.61
2018-04-22T20:52:12.774Z,61.22
2018-04-22T20:54:40.343Z,61.31
2018-04-22T20:57:07.896Z,61.17
2018-04-22T20:59:35.692Z,61.23
2018-04-22T21:02:03.295Z,62.25
2018-04-22T21:04:31.028Z,62.38
2018-04-22T21:06:58.595Z,62.75
2018-04-22T21:09:26.365Z,63.00
2018-04-22T21:11:53.933Z,62.97
2018-04-22T21:14:21.493Z,63.07
2018-04-22T21:16:49.319Z,62.72
2018-04-22T21:19:16.876Z,62.42
2018-04-22T21:21:44.417Z,62.81
2018-04-22T21:24:11.980Z,63.23
2018-04-22T21:26:39.536Z,63.84
2018-04-22T21:29:07.409Z,64.09
2018-04-22T21:31:34.971Z,64.50
2018-04-22T21:34:02.747Z,64.80
2018-04-22T21:36:30.565Z,64.95
2018-04-22T21:38:58.121Z,65.23
2018-04-22T21:41:25.900Z,65.49
2018-04-22T21:43:53.465Z,65.27
2018-04-22T21:46:21.040Z,65.60
2018-04-22T21:48:48.600Z,65.78
2018-04-22T21:51:16.158Z,65.44
2018-04-22T21:53:43.774Z,65.73
2018-04-22T21:56:11.338Z,65.93
2018-04-22T21:58:39.205Z,65.92
2018-04-22T22:01:06.764Z,65.96
2018-04-22T22:03:34.359Z,66.04
2018-04-22T22:06:01.945Z,66.21
2018-04-22T22:08:29.500Z,66.54
2018-04-22T22:10:57.317Z,66.62
2018-04-22T22:13:25.038Z,66.82
2018-04-22T22:15:52.645Z,67.03
2018-04-22T22:18:20.204Z,66.79
2018-04-22T22:20:47.794Z,66.82
2018-04-22T22:23:15.372Z,66.74
2018-04-22T22:25:42.933Z,67.16
2018-04-22T22:28:11.224Z,67.19
2018-04-22T22:30:38.790Z,67.35
2018-04-22T22:33:06.349Z,66.57
2018-04-22T22:35:33.917Z,67.08
2018-04-22T22:38:01.468Z,67.45
2018-04-22T22:40:29.039Z,67.88
2018-04-22T22:42:56.593Z,68.35
2018-04-22T22:45:24.204Z,68.58
2018-04-22T22:47:51.987Z,68.92
2018-04-22T22:50:19.549Z,69.05
2018-04-22T22:52:47.133Z,69.27
2018-04-22T22:55:14.707Z,69.14
2018-04-22T22:57:42.344Z,69.48
2018-04-22T23:00:09.969Z,69.55
2018-04-22T23:02:37.794Z,69.65
2018-04-22T23:05:05.356Z,69.87
2018-04-22T23:07:32.894Z,69.90
2018-04-22T23:10:00.689Z,69.89
2018-04-22T23:12:28.472Z,69.62
2018-04-22T23:14:56.083Z,69.73
2018-04-22T23:17:23.904Z,69.44
2018-04-22T23:19:51.445Z,69.58
2018-04-22T23:22:19.120Z,69.61
2018-04-22T23:24:46.958Z,69.43
2018-04-22T23:27:14.516Z,69.62
2018-04-22T23:29:42.295Z,70.20
2018-04-22T23:32:09.865Z,70.54
2018-04-22T23:34:37.422Z,70.34
2018-04-22T23:37:05.044Z,70.56
2018-04-22T23:39:32.738Z,70.79
2018-04-22T23:42:00.289Z,70.37
2018-04-22T23:44:27.852Z,70.52
2018-04-22T23:46:55.527Z,70.45
2018-04-22T23:49:23.339Z,70.58
2018-04-22T23:51:51.020Z,70.46
2018-04-22T23:54:18.670Z,70.65
2018-04-22T23:56:46.493Z,70.68
2018-04-22T23:59:14.211Z,70.85
